Airfield :
LOGIN :

Register | Disclaimer

   EN    FR    IT 

 










Legend :    VFR   Marginal VFR   IFR   Intensive IFR   Very Intensive IFR
Visi :
Ceiling :
>= 8 km
>= 3000ft
5 to 8 km
1000 to 3000 ft
1500m to 5 km
500 to 1000 ft
800 to 1500m
200 to 500 ft
< 800m
< 200 ft
Symbols :   Thunderstorms  Fog  Heavy snow  Heavy precipitations  Wind > 20 kt
SIGMETs :     Misc.  Thunderstorms  Icing  Turbulence  Mountain Waves  Volcanic Ashes






- Airport Elevation : 433 ft
- IATA code : CCF


LFMK - Carcassonne

CURRENT METAR :
  • 180330Z AUTO 27005KT CAVOK 06/05 Q1033 NOSIG

EXPIRED METARs :
  • 180300Z AUTO 26007KT 230V290 CAVOK 07/05 Q1033 NOSIG
  • 180230Z AUTO 26007KT 230V290 9999 FEW031 07/05 Q1033
  • 180200Z AUTO 27008KT 9999 SCT026 BKN043 08/06 Q1033
  • 180130Z AUTO 27009KT 9999 FEW029 BKN042 08/05 Q1033
  • 180100Z AUTO 28010KT 240V300 9999 FEW023 BKN041 BKN047 08/06 Q1033

TAF TAF LFMK
Valid from the 18 at 03:00 until the 19 at 03:00 UTC


180200Z 1803/1903 28012KT 9999 NSC



MET'MAP, your aeronautical weather chart ! - Copyright ORBIFLY December 2007 - Disclaimer

ORBIFLY MET'MAP TEAM :

Programming & Development : Alexandra Zaïnal
Concept & original design : Baudouin d'Aumeries
Assistance for programming : Marc-Olivier Méhu
Technical & hardware support : Manuel Goepfert

Contact : metmap@orbifly.com




SOURCES & CREDITS :

   NOAA